Time;durP1;ratioP1;P1;durP2;ratioP2;P2;SDS_P1;SDS_P2;PMS_P1;PMS_P2;Temp;Humidity;BMP_temperature;BMP_pressure;BME280_temperature;BME280_humidity;BME280_pressure;Samples;Min_cycle;Max_cycle;Signal;HPM_P1;HPM_P2
2023/01/02 00:01:04;;;;;;;8.55;2.88;;;18.60;69.80;;;;;;4462771;32;20065;-64
2023/01/02 00:03:30;;;;;;;8.77;2.97;;;18.70;69.80;;;;;;4467317;32;20135;-64
2023/01/02 00:05:56;;;;;;;7.88;3.28;;;18.60;69.70;;;;;;4466135;32;20066;-64
2023/01/02 00:08:24;;;;;;;8.63;3.17;;;18.60;69.70;;;;;;4461852;32;20088;-64
2023/01/02 00:10:50;;;;;;;8.52;3.05;;;18.60;69.70;;;;;;4461537;32;20117;-64
2023/01/02 00:13:16;;;;;;;8.57;3.00;;;18.60;69.70;;;;;;4465308;32;20211;-64
2023/01/02 00:15:41;;;;;;;9.13;3.35;;;18.60;69.70;;;;;;4475743;32;20132;-64
2023/01/02 00:18:07;;;;;;;8.80;3.10;;;18.60;69.70;;;;;;4475342;32;20155;-64
2023/01/02 00:20:33;;;;;;;6.32;2.67;;;18.60;69.70;;;;;;4475767;32;20079;-64
2023/01/02 00:22:59;;;;;;;6.47;2.75;;;18.60;69.70;;;;;;4475625;32;20097;-64
2023/01/02 00:25:25;;;;;;;7.18;2.75;;;18.60;69.70;;;;;;4475887;32;20395;-64
2023/01/02 00:27:51;;;;;;;7.18;2.70;;;18.60;69.70;;;;;;4475357;32;20608;-64
2023/01/02 00:30:17;;;;;;;6.80;2.83;;;18.60;69.70;;;;;;4475470;32;20076;-64
2023/01/02 00:32:43;;;;;;;6.43;3.13;;;18.60;69.70;;;;;;4475634;32;20080;-64
2023/01/02 00:35:09;;;;;;;6.18;2.67;;;18.60;69.70;;;;;;4475342;32;20510;-64
2023/01/02 00:37:35;;;;;;;8.43;3.08;;;18.60;69.70;;;;;;4461590;32;20630;-64
2023/01/02 00:40:00;;;;;;;6.55;2.75;;;18.60;69.70;;;;;;4475544;32;20093;-64
2023/01/02 00:42:27;;;;;;;7.80;2.70;;;18.50;69.60;;;;;;4475659;32;20208;-64
2023/01/02 00:44:53;;;;;;;7.78;3.05;;;18.50;69.60;;;;;;4475629;32;20076;-64
2023/01/02 00:47:19;;;;;;;7.43;2.42;;;18.50;69.60;;;;;;4475086;32;20081;-64
2023/01/02 00:49:45;;;;;;;8.30;2.67;;;18.50;69.60;;;;;;4475005;32;20062;-64
2023/01/02 00:52:11;;;;;;;6.35;2.83;;;18.50;69.60;;;;;;4475188;32;20219;-64
2023/01/02 00:54:37;;;;;;;8.25;2.78;;;18.50;69.60;;;;;;4475581;32;20069;-64
2023/01/02 00:57:03;;;;;;;9.02;2.97;;;18.50;70.50;;;;;;4475388;32;20115;-64
2023/01/02 00:59:29;;;;;;;6.88;2.90;;;18.50;69.60;;;;;;4475459;32;20074;-64
2023/01/02 01:01:55;;;;;;;6.20;2.63;;;18.50;69.60;;;;;;4475609;32;20117;-64
2023/01/02 01:04:21;;;;;;;5.22;2.65;;;18.50;69.60;;;;;;4474767;32;20091;-64
2023/01/02 01:06:47;;;;;;;6.18;2.67;;;18.40;69.50;;;;;;4475152;32;20485;-65
2023/01/02 01:09:12;;;;;;;6.18;2.78;;;18.40;69.50;;;;;;4475890;32;20223;-64
2023/01/02 01:11:38;;;;;;;5.15;2.30;;;18.40;69.50;;;;;;4476344;32;20058;-64
2023/01/02 01:14:04;;;;;;;7.28;2.72;;;18.40;69.50;;;;;;4471905;32;20069;-64
2023/01/02 01:16:30;;;;;;;8.05;2.65;;;18.40;69.50;;;;;;4474802;32;20132;-64
2023/01/02 01:18:56;;;;;;;7.05;2.60;;;18.40;69.40;;;;;;4461395;32;20398;-64
2023/01/02 01:21:26;;;;;;;5.90;2.30;;;18.40;69.40;;;;;;4475230;32;20104;-65
2023/01/02 01:23:55;;;;;;;7.15;2.55;;;18.40;69.50;;;;;;4475466;32;20061;-64
2023/01/02 01:26:21;;;;;;;6.57;2.72;;;18.40;69.40;;;;;;4475263;32;20545;-64
2023/01/02 01:28:53;;;;;;;7.07;2.63;;;18.40;69.40;;;;;;4475400;32;20522;-64
2023/01/02 01:31:20;;;;;;;6.97;2.40;;;18.40;69.40;;;;;;4475330;32;20518;-64
2023/01/02 01:33:47;;;;;;;5.18;2.30;;;18.40;69.40;;;;;;4475012;32;20065;-64
2023/01/02 01:36:18;;;;;;;6.65;2.40;;;18.40;69.40;;;;;;4475091;32;20065;-64
2023/01/02 01:38:44;;;;;;;6.45;2.70;;;18.40;69.40;;;;;;4476025;32;20215;-64
2023/01/02 01:41:16;;;;;;;7.20;2.55;;;18.40;69.40;;;;;;4478259;32;20101;-63
2023/01/02 01:43:49;;;;;;;6.07;2.25;;;18.40;69.40;;;;;;4477982;32;20211;-64
2023/01/02 01:46:45;;;;;;;6.45;2.40;;;18.40;69.40;;;;;;4477903;32;20081;-64
2023/01/02 01:49:27;;;;;;;4.97;2.58;;;18.40;69.30;;;;;;4467589;32;20113;-63
2023/01/02 01:51:59;;;;;;;5.25;2.30;;;18.30;69.30;;;;;;4477576;32;20089;-64
2023/01/02 01:54:30;;;;;;;5.22;2.20;;;18.30;69.30;;;;;;4477950;32;20074;-64
2023/01/02 01:57:56;;;;;;;5.07;2.22;;;18.30;70.20;;;;;;4477856;32;20170;-64
2023/01/02 02:00:21;;;;;;;3.95;1.90;;;18.30;69.20;;;;;;4475642;32;20100;-64
2023/01/02 02:02:51;;;;;;;4.78;1.95;;;18.30;69.30;;;;;;4477788;32;20062;-64
2023/01/02 02:05:22;;;;;;;4.72;2.08;;;18.30;69.30;;;;;;4477830;32;20167;-63
2023/01/02 02:08:13;;;;;;;5.78;2.42;;;18.30;69.30;;;;;;4477496;32;20088;-64
2023/01/02 02:10:40;;;;;;;7.28;2.20;;;18.30;69.30;;;;;;4466207;32;20236;-64
2023/01/02 02:13:06;;;;;;;5.13;2.10;;;18.30;69.30;;;;;;4477713;32;20592;-64
2023/01/02 02:15:46;;;;;;;5.03;1.92;;;18.30;69.20;;;;;;4477595;32;20144;-63
2023/01/02 02:18:50;;;;;;;4.80;2.03;;;18.30;69.20;;;;;;4477190;32;20506;-64
2023/01/02 02:21:31;;;;;;;;;;;18.30;69.20;;;;;;4448397;32;20074;-64
2023/01/02 02:24:15;;;;;;;4.28;2.00;;;18.20;69.20;;;;;;4477689;32;19965;-64
2023/01/02 02:27:09;;;;;;;4.78;2.13;;;18.20;69.20;;;;;;4477305;32;20131;-64
2023/01/02 02:30:02;;;;;;;6.40;2.17;;;18.20;70.00;;;;;;4477377;32;20069;-64
2023/01/02 02:33:11;;;;;;;5.13;2.00;;;18.20;69.20;;;;;;4468853;32;20085;-63
2023/01/02 02:35:41;;;;;;;5.72;2.03;;;18.20;69.20;;;;;;4476879;32;20093;-64
2023/01/02 02:38:21;;;;;;;5.80;2.35;;;18.20;69.20;;;;;;4476843;32;20543;-64
2023/01/02 02:41:14;;;;;;;5.03;1.80;;;18.20;69.20;;;;;;4477133;32;20077;-64
2023/01/02 02:44:08;;;;;;;6.47;2.30;;;18.20;69.20;;;;;;4466482;32;20482;-64
2023/01/02 02:47:25;;;;;;;3.35;1.73;;;18.20;69.20;;;;;;4476593;32;20213;-64
2023/01/02 02:50:03;;;;;;;4.25;1.70;;;18.20;69.20;;;;;;4397270;32;20083;-64
2023/01/02 02:52:35;;;;;;;4.40;1.90;;;18.20;69.20;;;;;;4397853;32;20071;-64
2023/01/02 02:55:59;;;;;;;4.88;2.17;;;18.20;69.20;;;;;;4444556;32;20305;-64
2023/01/02 02:58:27;;;;;;;4.22;1.80;;;18.20;69.10;;;;;;4465395;32;20151;-65
2023/01/02 03:01:06;;;;;;;3.65;1.73;;;18.20;69.20;;;;;;4477071;32;20086;-64
2023/01/02 03:03:32;;;;;;;3.50;1.80;;;18.20;69.10;;;;;;4476701;32;20109;-64
2023/01/02 03:06:03;;;;;;;4.45;1.83;;;18.20;69.20;;;;;;4477080;32;20124;-64
2023/01/02 03:09:06;;;;;;;5.00;2.20;;;18.20;69.20;;;;;;4476684;32;20333;-64
2023/01/02 03:11:57;;;;;;;3.35;1.67;;;18.20;69.10;;;;;;4469962;32;20140;-64
2023/01/02 03:14:36;;;;;;;4.90;2.10;;;18.20;69.10;;;;;;4476925;32;20081;-64
2023/01/02 03:17:10;;;;;;;3.60;1.88;;;18.20;69.20;;;;;;4476487;32;20081;-64
2023/01/02 03:19:41;;;;;;;3.20;1.58;;;18.10;69.10;;;;;;4476856;32;20087;-64
2023/01/02 03:22:18;;;;;;;4.63;1.85;;;18.10;69.10;;;;;;4476571;32;20211;-65
2023/01/02 03:24:49;;;;;;;4.90;1.90;;;18.10;69.10;;;;;;4462580;32;20081;-64
2023/01/02 03:27:21;;;;;;;5.13;2.03;;;18.10;69.10;;;;;;4476385;32;20170;-64
2023/01/02 03:29:52;;;;;;;4.68;1.77;;;18.10;69.10;;;;;;4476750;32;20089;-64
2023/01/02 03:32:28;;;;;;;6.35;1.80;;;18.10;69.10;;;;;;4476569;32;20477;-64
2023/01/02 03:34:55;;;;;;;2.60;1.67;;;18.10;69.10;;;;;;4466845;32;20089;-64
2023/01/02 03:37:29;;;;;;;3.08;1.40;;;18.10;69.10;;;;;;4476465;32;20106;-64
2023/01/02 03:39:56;;;;;;;;;;;18.10;69.00;;;;;;4477469;32;20093;-64
2023/01/02 03:42:38;;;;;;;4.15;2.13;;;18.10;69.00;;;;;;4476358;32;20086;-64
2023/01/02 03:45:30;;;;;;;4.35;1.80;;;18.00;69.10;;;;;;4476461;32;20096;-64
2023/01/02 03:48:09;;;;;;;3.67;1.80;;;18.10;69.10;;;;;;4472417;32;20073;-64
2023/01/02 03:50:47;;;;;;;4.57;1.70;;;18.10;69.10;;;;;;4475836;32;20128;-64
2023/01/02 03:53:13;;;;;;;3.72;1.65;;;18.10;69.10;;;;;;4476128;32;20139;-64
2023/01/02 03:55:44;;;;;;;3.60;1.40;;;18.10;69.00;;;;;;4461987;32;20537;-64
2023/01/02 03:58:19;;;;;;;2.92;1.65;;;18.00;69.00;;;;;;4474053;32;20121;-64
2023/01/02 04:01:02;;;;;;;3.95;1.80;;;18.00;69.00;;;;;;4474418;32;20200;-64
2023/01/02 04:03:37;;;;;;;3.35;1.65;;;18.00;68.90;;;;;;4471309;32;20092;-64
2023/01/02 04:06:11;;;;;;;3.22;1.40;;;18.00;69.00;;;;;;4471898;32;20212;-64
2023/01/02 04:08:44;;;;;;;3.08;1.45;;;18.00;68.90;;;;;;4473259;32;20086;-64
2023/01/02 04:11:14;;;;;;;3.33;1.50;;;18.00;69.00;;;;;;4473460;32;20649;-64
2023/01/02 04:14:03;;;;;;;4.47;1.90;;;18.00;68.90;;;;;;4472152;32;20074;-64
2023/01/02 04:16:32;;;;;;;3.90;1.67;;;18.00;68.90;;;;;;4473115;32;20473;-65
2023/01/02 04:19:26;;;;;;;3.22;1.38;;;18.00;68.90;;;;;;4473453;32;20403;-64
2023/01/02 04:21:56;;;;;;;2.28;1.50;;;18.00;68.90;;;;;;4474241;32;20404;-64
2023/01/02 04:24:28;;;;;;;3.55;1.67;;;18.00;68.90;;;;;;4475135;32;20085;-64
2023/01/02 04:27:02;;;;;;;2.70;1.50;;;18.00;68.90;;;;;;4454729;32;20077;-64
2023/01/02 04:29:29;;;;;;;2.65;1.40;;;18.00;68.90;;;;;;4458383;32;20077;-64
2023/01/02 04:32:12;;;;;;;2.42;1.25;;;18.00;68.90;;;;;;4472681;32;20213;-65
2023/01/02 04:34:41;;;;;;;3.50;1.35;;;18.00;68.90;;;;;;4460350;32;20157;-64
2023/01/02 04:37:07;;;;;;;2.38;1.38;;;18.00;68.90;;;;;;4470702;32;20163;-64
2023/01/02 04:39:35;;;;;;;2.75;1.27;;;18.00;68.90;;;;;;4467401;32;20081;-64
2023/01/02 04:42:01;;;;;;;2.92;1.38;;;18.00;68.90;;;;;;4472715;32;20171;-64
2023/01/02 04:44:27;;;;;;;2.88;1.33;;;18.00;68.90;;;;;;4475420;32;20170;-64
2023/01/02 04:46:53;;;;;;;3.30;1.58;;;18.00;68.90;;;;;;4475083;32;20081;-64
2023/01/02 04:49:21;;;;;;;3.72;1.40;;;18.00;68.90;;;;;;4460968;32;20093;-64
2023/01/02 04:51:47;;;;;;;3.58;1.50;;;18.00;69.70;;;;;;4473380;32;20074;-64
2023/01/02 04:54:13;;;;;;;2.60;1.35;;;17.90;68.80;;;;;;4459916;32;20286;-64
2023/01/02 04:56:39;;;;;;;2.65;1.20;;;17.90;68.80;;;;;;4456064;32;20083;-64
2023/01/02 04:59:05;;;;;;;2.10;1.20;;;17.90;68.90;;;;;;4472142;32;20076;-64
2023/01/02 05:01:31;;;;;;;2.70;1.60;;;17.90;68.90;;;;;;4471458;32;20102;-64
2023/01/02 05:03:56;;;;;;;3.05;1.45;;;17.90;68.80;;;;;;4472836;32;20062;-64
2023/01/02 05:06:22;;;;;;;1.67;1.13;;;17.90;68.90;;;;;;4473329;32;20078;-64
2023/01/02 05:08:48;;;;;;;2.22;1.40;;;17.90;68.90;;;;;;4472873;32;20078;-64
2023/01/02 05:11:18;;;;;;;2.95;1.30;;;17.90;68.80;;;;;;4473879;32;20306;-65
2023/01/02 05:13:45;;;;;;;3.78;1.25;;;17.90;68.80;;;;;;4473078;32;20121;-64
2023/01/02 05:16:11;;;;;;;2.38;1.27;;;17.90;68.90;;;;;;4475463;32;20149;-64
2023/01/02 05:18:37;;;;;;;2.70;1.30;;;17.90;68.80;;;;;;4473789;32;20195;-64
2023/01/02 05:21:06;;;;;;;2.47;1.35;;;17.90;68.80;;;;;;4476053;32;20077;-64
2023/01/02 05:23:47;;;;;;;3.72;1.35;;;17.90;68.90;;;;;;4475644;32;20117;-65
2023/01/02 05:26:14;;;;;;;2.35;1.35;;;17.90;68.80;;;;;;4476104;32;20560;-64
2023/01/02 05:29:00;;;;;;;2.38;1.40;;;17.90;68.80;;;;;;4464838;32;20069;-64
2023/01/02 05:31:46;;;;;;;4.07;1.35;;;17.90;68.80;;;;;;4452305;32;20291;-64
2023/01/02 05:34:32;;;;;;;3.90;1.33;;;17.90;68.80;;;;;;4462260;32;20522;-66
2023/01/02 05:37:17;;;;;;;3.25;1.45;;;17.90;68.80;;;;;;4464329;32;20073;-65
2023/01/02 05:40:04;;;;;;;2.42;1.15;;;17.90;68.80;;;;;;4462721;32;20203;-65
2023/01/02 05:42:50;;;;;;;2.85;1.40;;;17.90;68.80;;;;;;4464379;32;20081;-65
2023/01/02 05:45:35;;;;;;;2.17;1.27;;;17.90;68.90;;;;;;4463842;32;20548;-65
2023/01/02 05:48:01;;;;;;;2.83;1.17;;;17.90;68.90;;;;;;4460737;32;20117;-65
2023/01/02 05:50:28;;;;;;;2.45;1.08;;;17.80;68.80;;;;;;4476506;32;20069;-65
2023/01/02 05:52:58;;;;;;;2.67;1.42;;;17.90;68.80;;;;;;4476447;32;20070;-65
2023/01/02 05:55:24;;;;;;;2.78;1.05;;;17.80;68.80;;;;;;4477283;32;20069;-64
2023/01/02 05:57:53;;;;;;;2.33;1.13;;;17.80;68.70;;;;;;4475243;32;20400;-65
2023/01/02 06:00:19;;;;;;;2.10;1.20;;;17.80;68.80;;;;;;4473642;32;20069;-65
2023/01/02 06:02:45;;;;;;;2.65;1.25;;;17.80;68.80;;;;;;4475907;32;20155;-65
2023/01/02 06:05:11;;;;;;;2.83;1.30;;;17.80;68.80;;;;;;4476275;32;20581;-65
2023/01/02 06:07:37;;;;;;;2.25;1.10;;;17.80;68.80;;;;;;4476441;32;20073;-65
2023/01/02 06:10:03;;;;;;;1.77;1.20;;;17.80;68.80;;;;;;4461983;32;20537;-65
2023/01/02 06:12:29;;;;;;;2.72;1.17;;;17.80;68.80;;;;;;4474918;32;20073;-65
2023/01/02 06:14:56;;;;;;;2.08;1.02;;;17.80;68.70;;;;;;4475102;32;20183;-65
2023/01/02 06:17:22;;;;;;;3.10;1.10;;;17.80;68.70;;;;;;4472121;32;20709;-65
2023/01/02 06:19:48;;;;;;;1.23;0.93;;;17.80;68.70;;;;;;4475276;32;20406;-65
2023/01/02 06:22:16;;;;;;;2.78;1.13;;;17.80;68.80;;;;;;4472277;32;20080;-65
2023/01/02 06:24:42;;;;;;;2.05;1.10;;;17.80;68.60;;;;;;4474332;32;20101;-65
2023/01/02 06:27:08;;;;;;;2.85;1.20;;;17.80;68.50;;;;;;4472784;32;20617;-65
2023/01/02 06:29:34;;;;;;;1.52;0.82;;;17.90;68.50;;;;;;4474130;32;20081;-65
2023/01/02 06:32:00;;;;;;;3.00;1.23;;;18.00;68.30;;;;;;4474522;32;20116;-65
2023/01/02 06:34:26;;;;;;;2.30;0.98;;;18.00;68.10;;;;;;4472622;32;20113;-65
2023/01/02 06:36:54;;;;;;;1.45;0.95;;;18.10;67.90;;;;;;4474878;32;20219;-65
2023/01/02 06:39:21;;;;;;;1.83;0.93;;;18.20;67.70;;;;;;4472136;32;20117;-65
2023/01/02 06:41:47;;;;;;;1.73;0.95;;;18.30;67.30;;;;;;4474697;32;20090;-65
2023/01/02 06:44:18;;;;;;;1.73;0.93;;;18.40;67.00;;;;;;4477351;32;20111;-65
2023/01/02 06:46:44;;;;;;;2.53;0.98;;;18.60;66.70;;;;;;4476488;32;20763;-65
2023/01/02 06:49:16;;;;;;;2.20;1.10;;;18.70;66.20;;;;;;4477383;32;20143;-65
2023/01/02 06:51:43;;;;;;;2.25;0.80;;;18.90;65.80;;;;;;4462506;32;20100;-65
2023/01/02 06:54:09;;;;;;;1.98;1.02;;;19.00;65.40;;;;;;4463056;32;20085;-65
2023/01/02 06:56:35;;;;;;;2.50;1.25;;;19.10;65.20;;;;;;4476891;32;20706;-65
2023/01/02 06:59:01;;;;;;;1.67;0.90;;;19.20;64.90;;;;;;4477171;32;20117;-65
2023/01/02 07:01:28;;;;;;;1.85;1.00;;;19.20;64.70;;;;;;4476867;32;20150;-65
2023/01/02 07:03:54;;;;;;;1.50;0.80;;;19.30;64.60;;;;;;4477244;32;20144;-65
2023/01/02 07:06:21;;;;;;;2.22;0.90;;;19.30;64.50;;;;;;4476952;32;20143;-65
2023/01/02 07:08:48;;;;;;;1.65;0.93;;;19.30;64.50;;;;;;4476692;32;20077;-65
2023/01/02 07:11:22;;;;;;;3.10;0.75;;;19.30;64.40;;;;;;4476695;32;20414;-65
2023/01/02 07:13:50;;;;;;;2.03;1.02;;;19.30;64.40;;;;;;4476493;32;20089;-65
2023/01/02 07:16:18;;;;;;;1.65;0.80;;;19.30;64.40;;;;;;4476873;32;20155;-65
2023/01/02 07:18:47;;;;;;;3.08;1.10;;;19.30;64.50;;;;;;4476244;32;20088;-65
2023/01/02 07:21:14;;;;;;;1.63;1.00;;;19.30;64.50;;;;;;4476871;32;20192;-65
2023/01/02 07:23:45;;;;;;;1.67;0.80;;;19.30;64.50;;;;;;4476576;32;20077;-65
2023/01/02 07:26:11;;;;;;;1.98;0.80;;;19.30;64.50;;;;;;4476674;32;20495;-65
2023/01/02 07:28:37;;;;;;;2.33;0.75;;;19.30;64.50;;;;;;4476336;32;20603;-65
2023/01/02 07:31:06;;;;;;;1.67;1.00;;;19.30;64.50;;;;;;4476599;32;20062;-65
2023/01/02 07:33:33;;;;;;;1.58;0.90;;;19.30;64.50;;;;;;4476426;32;20119;-65
2023/01/02 07:36:21;;;;;;;1.75;0.80;;;19.30;64.50;;;;;;4464476;32;20208;-65
2023/01/02 07:38:56;;;;;;;1.90;0.80;;;19.40;64.50;;;;;;4462138;32;20163;-66
2023/01/02 07:41:24;;;;;;;1.48;0.60;;;19.30;64.50;;;;;;4476472;32;20140;-65
2023/01/02 07:43:54;;;;;;;2.30;0.85;;;19.40;64.50;;;;;;4476358;32;20077;-65
2023/01/02 07:46:19;;;;;;;1.95;0.90;;;19.30;64.50;;;;;;4476219;32;20169;-65
2023/01/02 07:48:45;;;;;;;1.52;1.00;;;19.30;64.50;;;;;;4476005;32;20081;-65
2023/01/02 07:51:11;;;;;;;2.38;0.70;;;19.30;64.60;;;;;;4475793;32;20490;-65
2023/01/02 07:53:40;;;;;;;0.95;0.40;;;19.30;64.70;;;;;;4476466;32;20080;-65
2023/01/02 07:56:06;;;;;;;2.08;0.77;;;19.30;64.70;;;;;;4476117;32;20105;-65
2023/01/02 07:58:33;;;;;;;1.42;0.75;;;19.20;64.70;;;;;;4475929;32;20589;-65
2023/01/02 08:01:04;;;;;;;1.55;0.98;;;19.30;64.80;;;;;;4476201;32;20227;-65
2023/01/02 08:03:30;;;;;;;1.45;0.80;;;19.30;64.80;;;;;;4475982;32;20664;-66
2023/01/02 08:06:02;;;;;;;1.60;0.80;;;19.30;64.80;;;;;;4475955;32;20224;-65
2023/01/02 08:08:28;;;;;;;1.38;0.70;;;19.30;64.70;;;;;;4475919;32;20065;-65
2023/01/02 08:10:54;;;;;;;1.38;0.63;;;19.30;64.60;;;;;;4476082;32;20930;-66
2023/01/02 08:13:20;;;;;;;2.28;1.20;;;19.30;64.80;;;;;;4475852;32;20085;-66
2023/01/02 08:15:45;;;;;;;2.20;0.50;;;19.30;65.90;;;;;;4476018;32;20065;-66
2023/01/02 08:18:11;;;;;;;5.45;1.08;;;19.30;65.00;;;;;;4475056;32;20109;-70
2023/01/02 08:20:37;;;;;;;1.58;0.70;;;19.40;65.30;;;;;;4471382;32;20072;-66
2023/01/02 08:23:03;;;;;;;2.00;0.90;;;19.40;65.40;;;;;;4473806;32;20151;-66
2023/01/02 08:25:29;;;;;;;3.17;0.77;;;19.40;65.70;;;;;;4471633;32;20065;-67
2023/01/02 08:27:55;;;;;;;3.53;1.00;;;19.40;65.90;;;;;;4473964;32;20111;-66
2023/01/02 08:30:20;;;;;;;3.60;0.93;;;19.40;66.20;;;;;;4460823;32;20599;-66
2023/01/02 08:32:46;;;;;;;2.40;0.88;;;19.40;66.40;;;;;;4472194;32;20073;-66
2023/01/02 08:35:12;;;;;;;3.55;0.80;;;19.40;66.50;;;;;;4473726;32;20078;-66
2023/01/02 08:37:37;;;;;;;2.80;1.05;;;19.30;67.40;;;;;;4471472;32;20062;-66
2023/01/02 08:40:04;;;;;;;2.42;0.90;;;19.30;66.80;;;;;;4473770;32;20147;-66
2023/01/02 08:42:30;;;;;;;2.83;0.90;;;19.30;66.90;;;;;;4473473;32;20085;-67
2023/01/02 08:44:56;;;;;;;3.47;0.95;;;19.30;67.00;;;;;;4475447;32;20600;-66
2023/01/02 08:47:22;;;;;;;2.40;0.90;;;19.20;67.20;;;;;;4475510;32;20093;-67
2023/01/02 08:49:47;;;;;;;2.67;1.00;;;19.20;68.20;;;;;;4477827;32;20058;-66
2023/01/02 08:52:13;;;;;;;2.85;1.25;;;19.20;67.40;;;;;;4478891;32;20084;-67
2023/01/02 08:54:40;;;;;;;4.80;1.17;;;19.20;67.50;;;;;;4478926;32;20081;-67
2023/01/02 08:57:06;;;;;;;3.42;0.88;;;19.20;67.70;;;;;;4478776;32;20406;-67
2023/01/02 08:59:31;;;;;;;2.58;0.90;;;19.10;67.70;;;;;;4478356;32;20184;-67
2023/01/02 09:01:57;;;;;;;3.65;1.02;;;19.10;67.80;;;;;;4466427;32;20070;-67
2023/01/02 09:04:23;;;;;;;4.05;0.88;;;19.10;68.00;;;;;;4466081;32;20499;-67
2023/01/02 09:06:49;;;;;;;2.25;0.82;;;19.10;68.10;;;;;;4477560;32;20173;-66
2023/01/02 09:09:15;;;;;;;3.25;0.82;;;19.00;68.10;;;;;;4475898;32;20091;-67
2023/01/02 09:11:48;;;;;;;2.03;0.88;;;19.00;68.10;;;;;;4475053;32;20101;-69
2023/01/02 09:14:15;;;;;;;3.65;0.90;;;19.00;68.20;;;;;;4474828;32;20093;-67
2023/01/02 09:16:41;;;;;;;2.28;1.02;;;19.10;68.10;;;;;;4476815;32;20093;-67
2023/01/02 09:19:07;;;;;;;1.92;0.70;;;19.10;67.90;;;;;;4465275;32;20400;-67
2023/01/02 09:21:33;;;;;;;6.55;1.05;;;19.20;67.90;;;;;;4465611;32;20316;-67
2023/01/02 09:23:58;;;;;;;4.40;1.17;;;19.30;67.70;;;;;;4465983;32;20058;-66
2023/01/02 09:26:25;;;;;;;2.38;0.85;;;19.30;67.50;;;;;;4464951;32;20074;-66
2023/01/02 09:28:51;;;;;;;2.95;1.08;;;19.40;67.40;;;;;;4466688;32;20081;-66
2023/01/02 09:31:18;;;;;;;2.30;1.13;;;19.40;67.30;;;;;;4464599;32;20080;-67
2023/01/02 09:33:45;;;;;;;2.17;0.98;;;19.40;67.30;;;;;;4466775;32;20101;-67
2023/01/02 09:36:16;;;;;;;3.30;0.80;;;19.40;67.40;;;;;;4464814;32;20074;-66
2023/01/02 09:38:42;;;;;;;2.55;0.90;;;19.50;67.50;;;;;;4471088;32;20141;-66
2023/01/02 09:41:18;;;;;;;3.67;1.00;;;19.50;67.60;;;;;;4468360;32;20612;-66
2023/01/02 09:43:51;;;;;;;4.10;1.25;;;19.50;67.70;;;;;;4478282;32;20427;-66
2023/01/02 09:46:49;;;;;;;5.22;1.05;;;19.50;67.70;;;;;;4476407;32;20080;-66
2023/01/02 09:49:19;;;;;;;3.92;1.00;;;19.50;67.70;;;;;;4450784;32;20395;-65
2023/01/02 09:51:45;;;;;;;2.65;0.98;;;19.50;67.70;;;;;;4475148;32;20077;-66
2023/01/02 09:54:38;;;;;;;3.75;0.90;;;19.50;67.70;;;;;;4463769;32;20204;-66
2023/01/02 09:57:10;;;;;;;3.47;0.80;;;19.50;67.70;;;;;;4464246;32;20085;-66
2023/01/02 10:00:00;;;;;;;2.33;0.77;;;19.50;67.70;;;;;;4476548;32;20077;-66
2023/01/02 10:02:43;;;;;;;2.88;1.20;;;19.50;67.70;;;;;;4476283;32;20077;-66
2023/01/02 10:05:27;;;;;;;4.80;1.00;;;19.50;67.70;;;;;;4475609;32;20090;-67
2023/01/02 10:08:08;;;;;;;2.63;0.90;;;19.50;67.90;;;;;;4476120;32;20070;-66
2023/01/02 10:10:41;;;;;;;2.58;1.10;;;19.50;67.80;;;;;;4473979;32;20231;-67
2023/01/02 10:13:26;;;;;;;7.00;0.95;;;19.50;68.00;;;;;;4475664;32;20074;-66
2023/01/02 10:15:53;;;;;;;2.88;1.00;;;19.50;68.00;;;;;;4474882;32;20210;-66
2023/01/02 10:18:22;;;;;;;3.28;0.80;;;19.50;68.00;;;;;;4468129;32;20081;-66
2023/01/02 10:20:56;;;;;;;2.60;0.75;;;19.40;67.90;;;;;;4472782;32;20069;-66
2023/01/02 10:23:24;;;;;;;;;;;19.40;67.60;;;;;;4466023;32;20117;-66
2023/01/02 10:25:58;;;;;;;3.70;1.10;;;19.40;67.50;;;;;;4463730;32;19984;-66
2023/01/02 10:28:56;;;;;;;1.65;0.88;;;19.40;67.50;;;;;;4464796;32;20090;-66
2023/01/02 10:31:46;;;;;;;3.83;1.05;;;19.40;67.40;;;;;;4474874;32;20133;-67
2023/01/02 10:34:16;;;;;;;4.55;1.00;;;19.40;67.40;;;;;;4473858;32;20288;-67
2023/01/02 10:36:44;;;;;;;5.45;1.00;;;19.40;67.50;;;;;;4474043;32;20284;-66
2023/01/02 10:39:24;;;;;;;5.53;0.90;;;19.40;67.50;;;;;;4475096;32;20335;-66
2023/01/02 10:41:53;;;;;;;2.53;0.80;;;19.40;67.50;;;;;;4476278;32;20502;-66
2023/01/02 10:44:31;;;;;;;6.88;1.30;;;19.40;67.50;;;;;;4474900;32;20517;-68
2023/01/02 10:46:58;;;;;;;4.25;0.98;;;19.40;67.40;;;;;;4461896;32;20542;-66
2023/01/02 10:49:25;;;;;;;1.33;0.52;;;19.40;67.40;;;;;;4461702;32;20085;-65
2023/01/02 10:52:10;;;;;;;4.57;0.82;;;19.40;67.50;;;;;;4460960;32;20077;-66
2023/01/02 10:55:02;;;;;;;6.18;0.90;;;19.40;67.50;;;;;;4461628;32;20716;-66
2023/01/02 10:57:38;;;;;;;5.38;1.00;;;19.40;67.50;;;;;;4459012;32;20095;-66
2023/01/02 11:00:07;;;;;;;2.88;1.02;;;19.40;67.50;;;;;;4461326;32;20096;-66
2023/01/02 11:02:38;;;;;;;4.05;0.90;;;19.40;67.50;;;;;;4461465;32;20170;-64
2023/01/02 11:05:07;;;;;;;2.00;0.68;;;19.40;67.50;;;;;;4461389;32;21819;-66
2023/01/02 11:07:36;;;;;;;2.13;0.65;;;19.40;67.60;;;;;;4461375;32;20109;-65
2023/01/02 11:10:19;;;;;;;4.35;1.08;;;19.40;67.60;;;;;;4469506;32;20137;-66
2023/01/02 11:12:46;;;;;;;6.93;0.90;;;19.40;67.60;;;;;;4474356;32;20092;-66
2023/01/02 11:15:13;;;;;;;1.83;0.90;;;19.40;67.60;;;;;;4474440;32;20120;-66
2023/01/02 11:17:43;;;;;;;1.13;0.63;;;19.40;67.60;;;;;;4472416;32;20085;-66
2023/01/02 11:20:25;;;;;;;3.65;1.40;;;19.40;67.60;;;;;;4460209;32;20093;-66
2023/01/02 11:22:54;;;;;;;3.78;1.00;;;19.40;67.60;;;;;;4467983;32;20096;-70
2023/01/02 11:25:26;;;;;;;3.13;0.80;;;19.40;67.60;;;;;;4469761;32;20083;-75
2023/01/02 11:27:57;;;;;;;4.75;0.80;;;19.40;67.70;;;;;;4467299;32;20510;-69
2023/01/02 11:30:25;;;;;;;9.18;1.30;;;19.40;67.80;;;;;;4469912;32;20113;-69
2023/01/02 11:33:25;;;;;;;4.88;0.93;;;19.40;67.70;;;;;;4466328;32;20070;-71
2023/01/02 11:35:56;;;;;;;3.65;0.75;;;19.40;67.70;;;;;;4466957;32;20160;-70
2023/01/02 11:38:26;;;;;;;2.80;0.70;;;19.40;67.70;;;;;;4468899;32;20131;-74
2023/01/02 11:40:59;;;;;;;2.00;0.75;;;19.50;67.70;;;;;;4467979;32;20152;-69
2023/01/02 11:43:50;;;;;;;2.50;0.53;;;19.50;67.70;;;;;;4466125;32;20216;-71
2023/01/02 11:46:35;;;;;;;1.65;0.70;;;19.50;67.70;;;;;;4476122;32;20087;-69
2023/01/02 11:49:16;;;;;;;5.38;0.80;;;19.50;67.60;;;;;;4476394;32;20096;-70
2023/01/02 11:51:43;;;;;;;5.38;0.63;;;19.50;67.60;;;;;;4472658;32;20210;-68
2023/01/02 11:54:18;;;;;;;3.33;0.80;;;19.50;67.50;;;;;;4474780;32;20069;-66
2023/01/02 11:56:44;;;;;;;2.60;0.90;;;19.40;66.90;;;;;;4473579;32;20167;-65
2023/01/02 11:59:11;;;;;;;2.92;0.90;;;19.40;66.70;;;;;;4474981;32;20088;-66
2023/01/02 12:01:42;;;;;;;5.93;0.90;;;19.40;66.60;;;;;;4473421;32;20069;-67
2023/01/02 12:04:09;;;;;;;2.08;0.60;;;19.40;66.60;;;;;;4474060;32;20083;-71
2023/01/02 12:06:41;;;;;;;8.48;0.93;;;19.40;66.70;;;;;;4427744;32;20179;-67
2023/01/02 12:09:12;;;;;;;1.33;0.50;;;19.40;66.50;;;;;;4467097;32;20175;-66
2023/01/02 12:11:41;;;;;;;4.93;0.77;;;19.50;66.60;;;;;;4467915;32;20376;-67
2023/01/02 12:14:18;;;;;;;4.05;0.73;;;19.50;66.50;;;;;;4472966;32;20160;-68
2023/01/02 12:16:52;;;;;;;5.53;1.00;;;19.50;66.30;;;;;;4473281;32;20077;-66
2023/01/02 12:19:25;;;;;;;3.10;0.80;;;19.50;66.30;;;;;;4472428;32;20202;-66
2023/01/02 12:22:25;;;;;;;4.38;0.70;;;19.60;66.30;;;;;;4470961;32;20423;-70
2023/01/02 12:25:22;;;;;;;3.75;0.75;;;19.60;66.20;;;;;;4471107;32;20113;-67
2023/01/02 12:28:04;;;;;;;4.63;0.70;;;19.60;66.20;;;;;;4470795;32;20227;-65
2023/01/02 12:30:35;;;;;;;2.90;0.77;;;19.60;66.10;;;;;;4472689;32;20226;-66
2023/01/02 12:33:10;;;;;;;12.35;0.88;;;19.60;66.20;;;;;;4473558;32;20506;-66
2023/01/02 12:35:57;;;;;;;5.10;0.75;;;19.60;66.20;;;;;;4474000;32;20066;-67
2023/01/02 12:38:30;;;;;;;4.38;0.50;;;19.60;66.20;;;;;;4474420;32;20093;-67
2023/01/02 12:41:15;;;;;;;2.08;0.60;;;19.60;66.30;;;;;;4472057;32;20074;-68
2023/01/02 12:44:10;;;;;;;7.63;0.85;;;19.60;66.20;;;;;;4471346;32;20533;-66
2023/01/02 12:47:06;;;;;;;2.40;0.93;;;19.60;66.10;;;;;;4445880;32;20085;-68
2023/01/02 12:49:40;;;;;;;7.63;0.70;;;19.60;66.10;;;;;;4469824;32;20551;-65
2023/01/02 12:52:22;;;;;;;2.30;0.60;;;19.60;66.10;;;;;;4472870;32;20163;-66
2023/01/02 12:55:17;;;;;;;7.80;0.70;;;19.60;66.10;;;;;;4472447;32;20103;-65
2023/01/02 12:58:08;;;;;;;2.00;0.82;;;19.60;66.10;;;;;;4457570;32;20418;-71
2023/01/02 13:00:56;;;;;;;2.65;0.60;;;19.60;65.90;;;;;;4442143;32;20092;-65
2023/01/02 13:03:37;;;;;;;3.42;0.50;;;19.60;66.00;;;;;;4472011;32;20121;-65
2023/01/02 13:06:12;;;;;;;2.55;0.68;;;19.60;65.90;;;;;;4449685;31;20116;-65
2023/01/02 13:08:50;;;;;;;3.67;0.70;;;19.60;66.00;;;;;;4471704;32;20106;-67
2023/01/02 13:11:24;;;;;;;5.03;0.70;;;19.60;66.00;;;;;;4472676;32;20077;-68
2023/01/02 13:13:50;;;;;;;3.13;0.68;;;19.60;67.00;;;;;;4474677;32;20445;-68
2023/01/02 13:16:17;;;;;;;2.92;0.60;;;19.60;66.20;;;;;;4472917;32;20549;-68